sensor_id;sensor_type;location;lat;lon;timestamp;P1;durP1;ratioP1;P2;durP2;ratioP2
20611;SDS011;10465;42.686;23.364;2023-12-20T00:01:18;89.60;;;48.05;;
20611;SDS011;10465;42.686;23.364;2023-12-20T00:03:43;102.38;;;48.95;;
20611;SDS011;10465;42.686;23.364;2023-12-20T00:06:09;97.15;;;51.33;;
20611;SDS011;10465;42.686;23.364;2023-12-20T00:08:35;111.03;;;52.88;;
20611;SDS011;10465;42.686;23.364;2023-12-20T00:11:00;104.80;;;51.53;;
20611;SDS011;10465;42.686;23.364;2023-12-20T00:13:26;110.55;;;53.53;;
20611;SDS011;10465;42.686;23.364;2023-12-20T00:15:51;108.30;;;54.35;;
20611;SDS011;10465;42.686;23.364;2023-12-20T00:18:17;106.90;;;53.72;;
20611;SDS011;10465;42.686;23.364;2023-12-20T00:20:42;100.53;;;52.15;;
20611;SDS011;10465;42.686;23.364;2023-12-20T00:23:08;103.40;;;49.55;;
20611;SDS011;10465;42.686;23.364;2023-12-20T00:25:33;97.63;;;49.40;;
20611;SDS011;10465;42.686;23.364;2023-12-20T00:28:00;103.72;;;50.47;;
20611;SDS011;10465;42.686;23.364;2023-12-20T00:30:25;117.63;;;54.22;;
20611;SDS011;10465;42.686;23.364;2023-12-20T00:32:51;114.10;;;55.05;;
20611;SDS011;10465;42.686;23.364;2023-12-20T00:35:16;123.57;;;63.50;;
20611;SDS011;10465;42.686;23.364;2023-12-20T00:37:42;127.80;;;62.65;;
20611;SDS011;10465;42.686;23.364;2023-12-20T00:40:08;132.77;;;68.78;;
20611;SDS011;10465;42.686;23.364;2023-12-20T00:42:34;151.70;;;73.00;;
20611;SDS011;10465;42.686;23.364;2023-12-20T00:45:00;152.25;;;73.20;;
20611;SDS011;10465;42.686;23.364;2023-12-20T00:47:26;138.82;;;69.95;;
20611;SDS011;10465;42.686;23.364;2023-12-20T00:49:51;162.05;;;76.65;;
20611;SDS011;10465;42.686;23.364;2023-12-20T00:52:17;169.07;;;83.68;;
20611;SDS011;10465;42.686;23.364;2023-12-20T00:54:43;188.55;;;92.68;;
20611;SDS011;10465;42.686;23.364;2023-12-20T00:57:09;212.85;;;97.45;;
20611;SDS011;10465;42.686;23.364;2023-12-20T00:59:34;206.88;;;97.80;;
20611;SDS011;10465;42.686;23.364;2023-12-20T01:02:00;200.75;;;98.57;;
20611;SDS011;10465;42.686;23.364;2023-12-20T01:04:26;186.05;;;86.43;;
20611;SDS011;10465;42.686;23.364;2023-12-20T01:06:51;171.30;;;76.82;;
20611;SDS011;10465;42.686;23.364;2023-12-20T01:09:17;120.63;;;59.83;;
20611;SDS011;10465;42.686;23.364;2023-12-20T01:11:43;114.97;;;59.50;;
20611;SDS011;10465;42.686;23.364;2023-12-20T01:14:09;181.68;;;86.80;;
20611;SDS011;10465;42.686;23.364;2023-12-20T01:16:34;205.18;;;101.28;;
20611;SDS011;10465;42.686;23.364;2023-12-20T01:18:59;190.48;;;84.55;;
20611;SDS011;10465;42.686;23.364;2023-12-20T01:21:25;145.50;;;70.78;;
20611;SDS011;10465;42.686;23.364;2023-12-20T01:23:50;188.23;;;86.25;;
20611;SDS011;10465;42.686;23.364;2023-12-20T01:26:16;210.85;;;96.32;;
20611;SDS011;10465;42.686;23.364;2023-12-20T01:28:41;208.27;;;98.57;;
20611;SDS011;10465;42.686;23.364;2023-12-20T01:31:08;196.18;;;89.28;;
20611;SDS011;10465;42.686;23.364;2023-12-20T01:33:33;226.38;;;101.38;;
20611;SDS011;10465;42.686;23.364;2023-12-20T01:35:59;204.65;;;95.75;;
20611;SDS011;10465;42.686;23.364;2023-12-20T01:38:25;202.90;;;89.05;;
20611;SDS011;10465;42.686;23.364;2023-12-20T01:40:50;183.60;;;83.70;;
20611;SDS011;10465;42.686;23.364;2023-12-20T01:43:16;181.13;;;84.18;;
20611;SDS011;10465;42.686;23.364;2023-12-20T01:45:41;178.55;;;81.95;;
20611;SDS011;10465;42.686;23.364;2023-12-20T01:48:07;180.02;;;80.93;;
20611;SDS011;10465;42.686;23.364;2023-12-20T01:50:34;166.13;;;75.95;;
20611;SDS011;10465;42.686;23.364;2023-12-20T01:53:01;176.43;;;77.57;;
20611;SDS011;10465;42.686;23.364;2023-12-20T01:55:29;144.35;;;73.93;;
20611;SDS011;10465;42.686;23.364;2023-12-20T01:57:57;153.68;;;73.32;;
20611;SDS011;10465;42.686;23.364;2023-12-20T02:00:23;150.57;;;71.45;;
20611;SDS011;10465;42.686;23.364;2023-12-20T02:02:52;144.27;;;71.13;;
20611;SDS011;10465;42.686;23.364;2023-12-20T02:05:18;155.73;;;72.75;;
20611;SDS011;10465;42.686;23.364;2023-12-20T02:07:44;146.93;;;70.07;;
20611;SDS011;10465;42.686;23.364;2023-12-20T02:10:09;140.45;;;65.95;;
20611;SDS011;10465;42.686;23.364;2023-12-20T02:12:34;130.40;;;63.55;;
20611;SDS011;10465;42.686;23.364;2023-12-20T02:15:00;139.50;;;62.30;;
20611;SDS011;10465;42.686;23.364;2023-12-20T02:17:28;127.18;;;58.90;;
20611;SDS011;10465;42.686;23.364;2023-12-20T02:20:03;126.70;;;58.97;;
20611;SDS011;10465;42.686;23.364;2023-12-20T02:22:30;116.88;;;60.20;;
20611;SDS011;10465;42.686;23.364;2023-12-20T02:24:56;120.65;;;57.60;;
20611;SDS011;10465;42.686;23.364;2023-12-20T02:27:21;129.18;;;57.88;;
20611;SDS011;10465;42.686;23.364;2023-12-20T02:29:48;119.53;;;58.53;;
20611;SDS011;10465;42.686;23.364;2023-12-20T02:32:15;118.63;;;58.65;;
20611;SDS011;10465;42.686;23.364;2023-12-20T02:34:42;113.07;;;56.15;;
20611;SDS011;10465;42.686;23.364;2023-12-20T02:37:07;121.65;;;57.03;;
20611;SDS011;10465;42.686;23.364;2023-12-20T02:39:33;112.20;;;53.78;;
20611;SDS011;10465;42.686;23.364;2023-12-20T02:41:58;102.30;;;51.17;;
20611;SDS011;10465;42.686;23.364;2023-12-20T02:44:24;113.00;;;51.33;;
20611;SDS011;10465;42.686;23.364;2023-12-20T02:46:49;100.10;;;50.55;;
20611;SDS011;10465;42.686;23.364;2023-12-20T02:49:15;99.93;;;49.90;;
20611;SDS011;10465;42.686;23.364;2023-12-20T02:51:40;95.47;;;50.10;;
20611;SDS011;10465;42.686;23.364;2023-12-20T02:54:06;98.57;;;48.13;;
20611;SDS011;10465;42.686;23.364;2023-12-20T02:56:32;96.57;;;45.78;;
20611;SDS011;10465;42.686;23.364;2023-12-20T02:58:58;84.63;;;41.28;;
20611;SDS011;10465;42.686;23.364;2023-12-20T03:01:23;98.05;;;42.67;;
20611;SDS011;10465;42.686;23.364;2023-12-20T03:03:49;94.95;;;45.58;;
20611;SDS011;10465;42.686;23.364;2023-12-20T03:06:18;85.22;;;44.70;;
20611;SDS011;10465;42.686;23.364;2023-12-20T03:08:44;96.13;;;45.20;;
20611;SDS011;10465;42.686;23.364;2023-12-20T03:11:10;80.18;;;42.63;;
20611;SDS011;10465;42.686;23.364;2023-12-20T03:13:35;82.05;;;40.83;;
20611;SDS011;10465;42.686;23.364;2023-12-20T03:16:00;81.38;;;38.92;;
20611;SDS011;10465;42.686;23.364;2023-12-20T03:18:26;73.32;;;36.05;;
20611;SDS011;10465;42.686;23.364;2023-12-20T03:20:53;63.50;;;32.42;;
20611;SDS011;10465;42.686;23.364;2023-12-20T03:23:18;50.25;;;27.83;;
20611;SDS011;10465;42.686;23.364;2023-12-20T03:25:44;52.53;;;27.63;;
20611;SDS011;10465;42.686;23.364;2023-12-20T03:28:10;48.70;;;25.70;;
20611;SDS011;10465;42.686;23.364;2023-12-20T03:30:35;44.28;;;24.67;;
20611;SDS011;10465;42.686;23.364;2023-12-20T03:33:00;51.13;;;25.02;;
20611;SDS011;10465;42.686;23.364;2023-12-20T03:35:26;52.47;;;26.45;;
20611;SDS011;10465;42.686;23.364;2023-12-20T03:37:51;51.53;;;28.23;;
20611;SDS011;10465;42.686;23.364;2023-12-20T03:40:17;55.55;;;28.42;;
20611;SDS011;10465;42.686;23.364;2023-12-20T03:42:42;48.58;;;28.40;;
20611;SDS011;10465;42.686;23.364;2023-12-20T03:45:07;57.08;;;28.67;;
20611;SDS011;10465;42.686;23.364;2023-12-20T03:47:33;59.22;;;29.30;;
20611;SDS011;10465;42.686;23.364;2023-12-20T03:49:59;61.58;;;30.73;;
20611;SDS011;10465;42.686;23.364;2023-12-20T03:52:24;48.35;;;28.10;;
20611;SDS011;10465;42.686;23.364;2023-12-20T03:54:50;52.22;;;27.40;;
20611;SDS011;10465;42.686;23.364;2023-12-20T03:57:15;60.85;;;27.98;;
20611;SDS011;10465;42.686;23.364;2023-12-20T03:59:40;56.03;;;27.05;;
20611;SDS011;10465;42.686;23.364;2023-12-20T04:02:06;60.38;;;29.65;;
20611;SDS011;10465;42.686;23.364;2023-12-20T04:04:31;64.20;;;30.17;;
20611;SDS011;10465;42.686;23.364;2023-12-20T04:06:57;61.25;;;30.77;;
20611;SDS011;10465;42.686;23.364;2023-12-20T04:09:22;68.95;;;32.78;;
20611;SDS011;10465;42.686;23.364;2023-12-20T04:11:47;65.63;;;32.92;;
20611;SDS011;10465;42.686;23.364;2023-12-20T04:14:13;64.60;;;32.20;;
20611;SDS011;10465;42.686;23.364;2023-12-20T04:16:39;67.38;;;31.20;;
20611;SDS011;10465;42.686;23.364;2023-12-20T04:19:04;67.15;;;30.25;;
20611;SDS011;10465;42.686;23.364;2023-12-20T04:21:30;65.53;;;32.55;;
20611;SDS011;10465;42.686;23.364;2023-12-20T04:23:55;74.95;;;33.30;;
20611;SDS011;10465;42.686;23.364;2023-12-20T04:26:21;74.47;;;34.95;;
20611;SDS011;10465;42.686;23.364;2023-12-20T04:28:46;66.25;;;35.00;;
20611;SDS011;10465;42.686;23.364;2023-12-20T04:31:12;74.78;;;35.72;;
20611;SDS011;10465;42.686;23.364;2023-12-20T04:33:37;81.80;;;36.15;;
20611;SDS011;10465;42.686;23.364;2023-12-20T04:36:03;69.75;;;34.05;;
20611;SDS011;10465;42.686;23.364;2023-12-20T04:38:29;76.88;;;34.72;;
20611;SDS011;10465;42.686;23.364;2023-12-20T04:40:54;70.70;;;35.47;;
20611;SDS011;10465;42.686;23.364;2023-12-20T04:43:20;61.55;;;31.25;;
20611;SDS011;10465;42.686;23.364;2023-12-20T04:45:45;63.88;;;31.98;;
20611;SDS011;10465;42.686;23.364;2023-12-20T04:48:11;59.15;;;31.35;;
20611;SDS011;10465;42.686;23.364;2023-12-20T04:50:37;56.28;;;29.63;;
20611;SDS011;10465;42.686;23.364;2023-12-20T04:53:02;58.13;;;30.90;;
20611;SDS011;10465;42.686;23.364;2023-12-20T04:55:28;60.63;;;30.63;;
20611;SDS011;10465;42.686;23.364;2023-12-20T04:57:53;60.20;;;28.85;;
20611;SDS011;10465;42.686;23.364;2023-12-20T05:00:19;65.20;;;30.77;;
20611;SDS011;10465;42.686;23.364;2023-12-20T05:02:45;61.08;;;30.88;;
20611;SDS011;10465;42.686;23.364;2023-12-20T05:05:10;55.70;;;28.75;;
20611;SDS011;10465;42.686;23.364;2023-12-20T05:07:36;52.25;;;29.67;;
20611;SDS011;10465;42.686;23.364;2023-12-20T05:10:02;60.65;;;29.42;;
20611;SDS011;10465;42.686;23.364;2023-12-20T05:12:29;57.03;;;28.88;;
20611;SDS011;10465;42.686;23.364;2023-12-20T05:14:55;54.45;;;29.88;;
20611;SDS011;10465;42.686;23.364;2023-12-20T05:17:20;57.53;;;29.02;;
20611;SDS011;10465;42.686;23.364;2023-12-20T05:19:45;55.95;;;28.10;;
20611;SDS011;10465;42.686;23.364;2023-12-20T05:22:11;53.97;;;27.85;;
20611;SDS011;10465;42.686;23.364;2023-12-20T05:24:36;63.55;;;30.42;;
20611;SDS011;10465;42.686;23.364;2023-12-20T05:27:02;54.15;;;29.00;;
20611;SDS011;10465;42.686;23.364;2023-12-20T05:29:27;63.63;;;30.63;;
20611;SDS011;10465;42.686;23.364;2023-12-20T05:31:53;57.55;;;28.90;;
20611;SDS011;10465;42.686;23.364;2023-12-20T05:34:19;62.47;;;29.30;;
20611;SDS011;10465;42.686;23.364;2023-12-20T05:36:45;59.55;;;28.30;;
20611;SDS011;10465;42.686;23.364;2023-12-20T05:39:10;61.22;;;28.95;;
20611;SDS011;10465;42.686;23.364;2023-12-20T05:41:36;58.40;;;29.20;;
20611;SDS011;10465;42.686;23.364;2023-12-20T05:44:02;55.65;;;28.48;;
20611;SDS011;10465;42.686;23.364;2023-12-20T05:46:27;56.65;;;28.45;;
20611;SDS011;10465;42.686;23.364;2023-12-20T05:48:53;54.05;;;26.25;;
20611;SDS011;10465;42.686;23.364;2023-12-20T05:51:18;52.97;;;26.42;;
20611;SDS011;10465;42.686;23.364;2023-12-20T05:53:44;50.85;;;27.70;;
20611;SDS011;10465;42.686;23.364;2023-12-20T05:56:10;58.80;;;27.20;;
20611;SDS011;10465;42.686;23.364;2023-12-20T05:58:35;53.95;;;25.40;;
20611;SDS011;10465;42.686;23.364;2023-12-20T06:01:01;53.15;;;24.92;;
20611;SDS011;10465;42.686;23.364;2023-12-20T06:03:28;48.80;;;23.77;;
20611;SDS011;10465;42.686;23.364;2023-12-20T06:05:54;42.50;;;22.80;;
20611;SDS011;10465;42.686;23.364;2023-12-20T06:08:19;50.22;;;23.25;;
20611;SDS011;10465;42.686;23.364;2023-12-20T06:10:44;46.28;;;23.30;;
20611;SDS011;10465;42.686;23.364;2023-12-20T06:13:10;40.38;;;20.98;;
20611;SDS011;10465;42.686;23.364;2023-12-20T06:15:36;43.70;;;22.85;;
20611;SDS011;10465;42.686;23.364;2023-12-20T06:18:02;50.42;;;23.13;;
20611;SDS011;10465;42.686;23.364;2023-12-20T06:20:28;50.17;;;22.90;;
20611;SDS011;10465;42.686;23.364;2023-12-20T06:22:53;46.97;;;23.65;;
20611;SDS011;10465;42.686;23.364;2023-12-20T06:25:21;47.60;;;22.85;;
20611;SDS011;10465;42.686;23.364;2023-12-20T06:27:47;45.90;;;23.13;;
20611;SDS011;10465;42.686;23.364;2023-12-20T06:30:12;44.72;;;21.90;;
20611;SDS011;10465;42.686;23.364;2023-12-20T06:32:38;41.00;;;19.75;;
20611;SDS011;10465;42.686;23.364;2023-12-20T06:35:04;45.28;;;20.25;;
20611;SDS011;10465;42.686;23.364;2023-12-20T06:37:30;43.75;;;19.83;;
20611;SDS011;10465;42.686;23.364;2023-12-20T06:39:56;38.38;;;20.60;;
20611;SDS011;10465;42.686;23.364;2023-12-20T06:42:22;46.85;;;20.48;;
20611;SDS011;10465;42.686;23.364;2023-12-20T06:44:47;41.17;;;20.90;;
20611;SDS011;10465;42.686;23.364;2023-12-20T06:47:13;49.15;;;22.05;;
20611;SDS011;10465;42.686;23.364;2023-12-20T06:49:39;40.92;;;19.10;;
20611;SDS011;10465;42.686;23.364;2023-12-20T06:52:05;38.05;;;18.35;;
20611;SDS011;10465;42.686;23.364;2023-12-20T06:54:30;33.25;;;17.42;;
20611;SDS011;10465;42.686;23.364;2023-12-20T06:56:56;31.90;;;16.95;;
20611;SDS011;10465;42.686;23.364;2023-12-20T06:59:21;34.65;;;17.05;;
20611;SDS011;10465;42.686;23.364;2023-12-20T07:01:49;36.75;;;16.05;;
20611;SDS011;10465;42.686;23.364;2023-12-20T07:04:15;37.83;;;17.08;;
20611;SDS011;10465;42.686;23.364;2023-12-20T07:06:45;34.22;;;17.17;;
20611;SDS011;10465;42.686;23.364;2023-12-20T07:09:10;37.42;;;17.48;;
20611;SDS011;10465;42.686;23.364;2023-12-20T07:11:35;37.92;;;18.58;;
20611;SDS011;10465;42.686;23.364;2023-12-20T07:14:01;35.00;;;17.38;;
20611;SDS011;10465;42.686;23.364;2023-12-20T07:16:26;35.53;;;16.33;;
20611;SDS011;10465;42.686;23.364;2023-12-20T07:18:52;31.63;;;16.08;;
20611;SDS011;10465;42.686;23.364;2023-12-20T07:21:17;36.75;;;16.75;;
20611;SDS011;10465;42.686;23.364;2023-12-20T07:23:43;37.50;;;16.98;;
20611;SDS011;10465;42.686;23.364;2023-12-20T07:26:08;35.05;;;17.17;;
20611;SDS011;10465;42.686;23.364;2023-12-20T07:28:34;39.53;;;18.15;;
20611;SDS011;10465;42.686;23.364;2023-12-20T07:30:59;35.30;;;18.80;;
20611;SDS011;10465;42.686;23.364;2023-12-20T07:33:25;36.70;;;17.25;;
20611;SDS011;10465;42.686;23.364;2023-12-20T07:35:50;41.50;;;17.75;;
20611;SDS011;10465;42.686;23.364;2023-12-20T07:38:16;41.88;;;19.42;;
20611;SDS011;10465;42.686;23.364;2023-12-20T07:40:42;45.45;;;18.55;;
20611;SDS011;10465;42.686;23.364;2023-12-20T07:43:08;42.47;;;18.15;;
20611;SDS011;10465;42.686;23.364;2023-12-20T07:45:33;40.50;;;17.05;;
20611;SDS011;10465;42.686;23.364;2023-12-20T07:47:58;39.40;;;18.40;;
20611;SDS011;10465;42.686;23.364;2023-12-20T07:50:24;37.83;;;19.10;;
20611;SDS011;10465;42.686;23.364;2023-12-20T07:52:49;44.08;;;19.30;;
20611;SDS011;10465;42.686;23.364;2023-12-20T07:55:15;35.60;;;17.13;;
20611;SDS011;10465;42.686;23.364;2023-12-20T07:57:40;42.03;;;19.45;;
20611;SDS011;10465;42.686;23.364;2023-12-20T08:00:06;42.72;;;20.13;;
20611;SDS011;10465;42.686;23.364;2023-12-20T08:02:32;53.72;;;21.05;;
20611;SDS011;10465;42.686;23.364;2023-12-20T08:04:57;46.50;;;20.42;;
20611;SDS011;10465;42.686;23.364;2023-12-20T08:07:22;44.97;;;21.17;;
20611;SDS011;10465;42.686;23.364;2023-12-20T08:09:49;53.65;;;26.27;;
20611;SDS011;10465;42.686;23.364;2023-12-20T08:12:14;63.50;;;29.48;;
20611;SDS011;10465;42.686;23.364;2023-12-20T08:14:41;65.53;;;28.90;;
20611;SDS011;10465;42.686;23.364;2023-12-20T08:17:07;68.38;;;28.98;;
20611;SDS011;10465;42.686;23.364;2023-12-20T08:19:32;64.47;;;30.02;;
20611;SDS011;10465;42.686;23.364;2023-12-20T08:21:58;62.53;;;28.08;;
20611;SDS011;10465;42.686;23.364;2023-12-20T08:24:23;69.07;;;30.20;;
20611;SDS011;10465;42.686;23.364;2023-12-20T08:26:48;73.25;;;30.23;;
20611;SDS011;10465;42.686;23.364;2023-12-20T08:29:14;74.78;;;32.35;;
20611;SDS011;10465;42.686;23.364;2023-12-20T08:31:39;73.72;;;32.42;;
20611;SDS011;10465;42.686;23.364;2023-12-20T08:34:05;73.32;;;30.33;;
20611;SDS011;10465;42.686;23.364;2023-12-20T08:36:30;83.05;;;34.08;;
20611;SDS011;10465;42.686;23.364;2023-12-20T08:38:56;84.05;;;33.00;;
20611;SDS011;10465;42.686;23.364;2023-12-20T08:41:21;78.45;;;31.77;;
20611;SDS011;10465;42.686;23.364;2023-12-20T08:43:46;81.25;;;32.58;;
20611;SDS011;10465;42.686;23.364;2023-12-20T08:46:13;77.30;;;33.20;;
20611;SDS011;10465;42.686;23.364;2023-12-20T08:48:39;74.43;;;31.58;;
20611;SDS011;10465;42.686;23.364;2023-12-20T08:51:05;68.95;;;30.33;;
20611;SDS011;10465;42.686;23.364;2023-12-20T08:53:33;71.32;;;28.52;;
20611;SDS011;10465;42.686;23.364;2023-12-20T08:55:59;74.43;;;29.20;;
20611;SDS011;10465;42.686;23.364;2023-12-20T08:58:26;68.55;;;25.98;;
20611;SDS011;10465;42.686;23.364;2023-12-20T09:00:52;64.65;;;27.23;;
20611;SDS011;10465;42.686;23.364;2023-12-20T09:03:18;56.63;;;27.50;;
20611;SDS011;10465;42.686;23.364;2023-12-20T09:05:43;67.97;;;26.77;;
20611;SDS011;10465;42.686;23.364;2023-12-20T09:08:08;72.93;;;28.23;;
20611;SDS011;10465;42.686;23.364;2023-12-20T09:10:35;53.80;;;26.52;;
20611;SDS011;10465;42.686;23.364;2023-12-20T09:13:02;59.13;;;24.45;;
20611;SDS011;10465;42.686;23.364;2023-12-20T09:15:27;54.35;;;24.15;;
20611;SDS011;10465;42.686;23.364;2023-12-20T09:17:55;57.45;;;24.58;;
20611;SDS011;10465;42.686;23.364;2023-12-20T09:20:20;54.65;;;22.77;;
20611;SDS011;10465;42.686;23.364;2023-12-20T09:22:48;57.35;;;22.95;;
20611;SDS011;10465;42.686;23.364;2023-12-20T09:25:14;55.88;;;24.65;;
20611;SDS011;10465;42.686;23.364;2023-12-20T09:27:40;62.38;;;25.15;;
20611;SDS011;10465;42.686;23.364;2023-12-20T09:30:06;63.58;;;26.33;;
20611;SDS011;10465;42.686;23.364;2023-12-20T09:32:32;72.25;;;26.58;;
20611;SDS011;10465;42.686;23.364;2023-12-20T09:34:57;74.72;;;27.27;;
20611;SDS011;10465;42.686;23.364;2023-12-20T09:37:26;60.38;;;25.92;;
20611;SDS011;10465;42.686;23.364;2023-12-20T09:39:51;61.83;;;25.30;;
20611;SDS011;10465;42.686;23.364;2023-12-20T09:42:19;57.42;;;24.83;;
20611;SDS011;10465;42.686;23.364;2023-12-20T09:44:49;68.20;;;26.92;;
20611;SDS011;10465;42.686;23.364;2023-12-20T09:47:15;63.03;;;26.15;;
20611;SDS011;10465;42.686;23.364;2023-12-20T09:49:43;58.47;;;27.40;;
20611;SDS011;10465;42.686;23.364;2023-12-20T09:52:10;75.80;;;28.08;;
20611;SDS011;10465;42.686;23.364;2023-12-20T09:54:38;73.47;;;27.13;;
20611;SDS011;10465;42.686;23.364;2023-12-20T09:57:03;62.47;;;26.85;;
20611;SDS011;10465;42.686;23.364;2023-12-20T09:59:29;57.63;;;25.17;;
20611;SDS011;10465;42.686;23.364;2023-12-20T10:01:55;60.92;;;23.92;;
20611;SDS011;10465;42.686;23.364;2023-12-20T10:04:22;63.40;;;24.42;;
20611;SDS011;10465;42.686;23.364;2023-12-20T10:06:47;50.20;;;23.10;;
20611;SDS011;10465;42.686;23.364;2023-12-20T10:09:13;54.50;;;23.35;;
20611;SDS011;10465;42.686;23.364;2023-12-20T10:11:38;56.05;;;23.83;;
20611;SDS011;10465;42.686;23.364;2023-12-20T10:14:05;63.42;;;25.13;;
20611;SDS011;10465;42.686;23.364;2023-12-20T10:16:32;63.20;;;23.80;;
20611;SDS011;10465;42.686;23.364;2023-12-20T10:18:58;59.72;;;25.35;;
20611;SDS011;10465;42.686;23.364;2023-12-20T10:21:24;58.58;;;23.83;;
20611;SDS011;10465;42.686;23.364;2023-12-20T10:23:54;63.00;;;25.70;;
20611;SDS011;10465;42.686;23.364;2023-12-20T10:26:26;64.70;;;26.00;;
20611;SDS011;10465;42.686;23.364;2023-12-20T10:28:59;64.40;;;25.45;;
20611;SDS011;10465;42.686;23.364;2023-12-20T10:33:53;62.35;;;26.80;;
20611;SDS011;10465;42.686;23.364;2023-12-20T10:36:18;70.90;;;28.33;;
20611;SDS011;10465;42.686;23.364;2023-12-20T10:38:43;76.10;;;29.08;;
20611;SDS011;10465;42.686;23.364;2023-12-20T10:41:09;74.10;;;28.42;;
20611;SDS011;10465;42.686;23.364;2023-12-20T10:43:35;78.15;;;31.73;;
20611;SDS011;10465;42.686;23.364;2023-12-20T10:46:02;73.30;;;31.10;;
20611;SDS011;10465;42.686;23.364;2023-12-20T10:48:30;72.80;;;30.88;;
20611;SDS011;10465;42.686;23.364;2023-12-20T10:50:56;74.22;;;31.90;;
20611;SDS011;10465;42.686;23.364;2023-12-20T10:53:21;75.78;;;32.00;;
20611;SDS011;10465;42.686;23.364;2023-12-20T10:55:49;76.82;;;33.10;;
20611;SDS011;10465;42.686;23.364;2023-12-20T10:58:17;70.65;;;32.70;;
20611;SDS011;10465;42.686;23.364;2023-12-20T11:00:45;78.97;;;32.28;;
20611;SDS011;10465;42.686;23.364;2023-12-20T11:03:12;92.45;;;35.40;;
20611;SDS011;10465;42.686;23.364;2023-12-20T11:05:44;83.38;;;36.72;;
20611;SDS011;10465;42.686;23.364;2023-12-20T11:11:13;89.47;;;37.08;;
20611;SDS011;10465;42.686;23.364;2023-12-20T11:13:48;95.65;;;38.38;;
20611;SDS011;10465;42.686;23.364;2023-12-20T11:16:20;85.88;;;38.20;;
20611;SDS011;10465;42.686;23.364;2023-12-20T11:18:46;97.95;;;39.58;;
20611;SDS011;10465;42.686;23.364;2023-12-20T11:21:11;80.53;;;35.88;;
20611;SDS011;10465;42.686;23.364;2023-12-20T11:23:39;78.13;;;33.15;;
20611;SDS011;10465;42.686;23.364;2023-12-20T11:26:07;67.82;;;29.98;;
20611;SDS011;10465;42.686;23.364;2023-12-20T11:28:33;66.43;;;29.33;;
20611;SDS011;10465;42.686;23.364;2023-12-20T11:31:00;64.30;;;29.92;;
20611;SDS011;10465;42.686;23.364;2023-12-20T11:33:29;71.68;;;31.45;;
20611;SDS011;10465;42.686;23.364;2023-12-20T11:35:56;66.47;;;30.25;;
20611;SDS011;10465;42.686;23.364;2023-12-20T11:38:24;73.15;;;32.60;;
20611;SDS011;10465;42.686;23.364;2023-12-20T11:40:50;76.38;;;33.25;;
20611;SDS011;10465;42.686;23.364;2023-12-20T11:43:37;65.90;;;30.40;;
20611;SDS011;10465;42.686;23.364;2023-12-20T11:46:04;63.28;;;29.98;;
20611;SDS011;10465;42.686;23.364;2023-12-20T11:48:30;65.55;;;28.55;;
20611;SDS011;10465;42.686;23.364;2023-12-20T11:50:56;72.85;;;31.00;;
20611;SDS011;10465;42.686;23.364;2023-12-20T11:53:22;73.55;;;31.73;;
20611;SDS011;10465;42.686;23.364;2023-12-20T11:55:48;77.97;;;33.78;;
20611;SDS011;10465;42.686;23.364;2023-12-20T11:58:14;73.85;;;33.25;;
20611;SDS011;10465;42.686;23.364;2023-12-20T12:00:41;81.53;;;34.00;;
20611;SDS011;10465;42.686;23.364;2023-12-20T12:03:08;72.70;;;30.13;;
20611;SDS011;10465;42.686;23.364;2023-12-20T12:05:34;72.40;;;30.83;;
20611;SDS011;10465;42.686;23.364;2023-12-20T12:08:00;62.97;;;29.05;;
20611;SDS011;10465;42.686;23.364;2023-12-20T12:10:26;78.82;;;31.38;;
20611;SDS011;10465;42.686;23.364;2023-12-20T12:12:51;75.38;;;31.38;;
20611;SDS011;10465;42.686;23.364;2023-12-20T12:15:17;76.72;;;31.63;;
20611;SDS011;10465;42.686;23.364;2023-12-20T12:17:42;74.28;;;30.35;;
20611;SDS011;10465;42.686;23.364;2023-12-20T12:20:08;69.95;;;28.83;;
20611;SDS011;10465;42.686;23.364;2023-12-20T12:22:35;73.32;;;30.30;;
20611;SDS011;10465;42.686;23.364;2023-12-20T12:25:11;72.68;;;30.33;;
20611;SDS011;10465;42.686;23.364;2023-12-20T12:27:39;77.18;;;30.88;;
20611;SDS011;10465;42.686;23.364;2023-12-20T12:30:05;76.93;;;30.45;;
20611;SDS011;10465;42.686;23.364;2023-12-20T12:32:35;73.70;;;30.92;;
20611;SDS011;10465;42.686;23.364;2023-12-20T12:35:02;76.43;;;30.38;;
20611;SDS011;10465;42.686;23.364;2023-12-20T12:37:29;67.22;;;29.83;;
20611;SDS011;10465;42.686;23.364;2023-12-20T12:39:55;76.20;;;30.10;;
20611;SDS011;10465;42.686;23.364;2023-12-20T12:42:20;74.50;;;31.08;;
20611;SDS011;10465;42.686;23.364;2023-12-20T12:44:46;75.70;;;29.77;;
20611;SDS011;10465;42.686;23.364;2023-12-20T12:47:12;69.88;;;28.35;;
20611;SDS011;10465;42.686;23.364;2023-12-20T12:49:38;71.82;;;30.25;;
20611;SDS011;10465;42.686;23.364;2023-12-20T12:52:05;71.82;;;30.27;;
20611;SDS011;10465;42.686;23.364;2023-12-20T12:54:31;83.70;;;34.28;;
20611;SDS011;10465;42.686;23.364;2023-12-20T12:56:56;88.78;;;36.40;;
20611;SDS011;10465;42.686;23.364;2023-12-20T12:59:23;95.25;;;38.40;;
20611;SDS011;10465;42.686;23.364;2023-12-20T13:01:48;105.15;;;43.42;;
20611;SDS011;10465;42.686;23.364;2023-12-20T13:04:14;129.55;;;49.58;;
20611;SDS011;10465;42.686;23.364;2023-12-20T13:06:39;108.03;;;41.63;;
20611;SDS011;10465;42.686;23.364;2023-12-20T13:09:07;92.35;;;36.97;;
20611;SDS011;10465;42.686;23.364;2023-12-20T13:11:34;84.82;;;34.53;;
20611;SDS011;10465;42.686;23.364;2023-12-20T13:14:00;79.88;;;31.98;;
20611;SDS011;10465;42.686;23.364;2023-12-20T13:16:25;78.03;;;34.53;;
20611;SDS011;10465;42.686;23.364;2023-12-20T13:18:51;83.93;;;33.05;;
20611;SDS011;10465;42.686;23.364;2023-12-20T13:21:16;83.93;;;32.80;;
20611;SDS011;10465;42.686;23.364;2023-12-20T13:23:42;74.72;;;32.40;;
20611;SDS011;10465;42.686;23.364;2023-12-20T13:26:07;77.53;;;31.02;;
20611;SDS011;10465;42.686;23.364;2023-12-20T13:28:33;82.70;;;31.67;;
20611;SDS011;10465;42.686;23.364;2023-12-20T13:30:59;69.47;;;27.25;;
20611;SDS011;10465;42.686;23.364;2023-12-20T13:33:24;66.13;;;28.55;;
20611;SDS011;10465;42.686;23.364;2023-12-20T13:35:50;67.93;;;28.60;;
20611;SDS011;10465;42.686;23.364;2023-12-20T13:38:16;72.60;;;28.17;;
20611;SDS011;10465;42.686;23.364;2023-12-20T13:40:41;62.88;;;25.83;;
20611;SDS011;10465;42.686;23.364;2023-12-20T13:43:07;58.78;;;24.30;;
20611;SDS011;10465;42.686;23.364;2023-12-20T13:45:32;59.78;;;24.38;;
20611;SDS011;10465;42.686;23.364;2023-12-20T13:47:58;68.75;;;26.92;;
20611;SDS011;10465;42.686;23.364;2023-12-20T13:50:24;70.47;;;28.60;;
20611;SDS011;10465;42.686;23.364;2023-12-20T13:52:49;89.28;;;32.40;;
20611;SDS011;10465;42.686;23.364;2023-12-20T13:55:14;73.88;;;30.02;;
20611;SDS011;10465;42.686;23.364;2023-12-20T13:57:40;85.65;;;31.05;;
20611;SDS011;10465;42.686;23.364;2023-12-20T14:00:06;83.30;;;32.05;;
20611;SDS011;10465;42.686;23.364;2023-12-20T14:02:39;92.88;;;33.85;;
20611;SDS011;10465;42.686;23.364;2023-12-20T14:05:04;94.00;;;34.55;;